^^
Station Historical Data
Daily Summary for December 9, 2017 Units:  English    Metric   Both
« Previous Day
Next Day »
Daily Weekly Monthly Yearly Custom
  High: Low: Average:
Temperature: 88.0 °F 61.3 °F 75.5 °F
Dew Point: 57.7 °F 43.5 °F 50.7 °F
Humidity: 83% 23% 47%
Wind Speed: 12.1mph 0.0mph 2.1mph
Wind Gust: 18.0mph - -
Wind- - ESE
Pressure: 30.28 in 30.12 in -
Precipitation: 0.00 in    
Historical Graphs
 
 
Tabular Data for December 9, 2017
Time Temperature Dew Point Pressure Wind Wind Speed Wind Gust Humidity Rainfall Rate (Hourly) solar Conditions
00:04 70.2 °F 54.1 °F 30.27 in Calm   3.0 mph 57% 0.00 in 0.0 W/m2
00:09 70.0 °F 54.5 °F 30.27 in NE 2.0 mph 5.0 mph 58% 0.00 in 0.0 W/m2
00:19 69.6 °F 54.7 °F 30.27 in Calm   4.0 mph 59% 0.00 in 0.0 W/m2
00:25 69.4 °F 54.5 °F 30.27 in Calm   1.0 mph 59% 0.00 in 0.0 W/m2
00:35 69.1 °F 54.7 °F 30.27 in Calm     60% 0.00 in 0.0 W/m2
00:40 68.9 °F 54.9 °F 30.27 in Calm   1.0 mph 61% 0.00 in 0.0 W/m2
00:45 68.7 °F 54.7 °F 30.27 in Calm   1.0 mph 61% 0.00 in 0.0 W/m2
00:50 68.5 °F 55.0 °F 30.28 in Calm   1.0 mph 62% 0.00 in 0.0 W/m2
00:55 68.4 °F 55.2 °F 30.27 in Calm   4.0 mph 63% 0.00 in 0.0 W/m2
01:00 68.4 °F 55.2 °F 30.27 in SE 0.9 mph 4.0 mph 63% 0.00 in 0.0 W/m2
01:05 68.2 °F 55.6 °F 30.27 in ESE 2.0 mph 3.0 mph 64% 0.00 in 0.0 W/m2
01:11 68.0 °F 55.4 °F 30.27 in Calm   2.0 mph 64% 0.00 in 0.0 W/m2
01:16 67.8 °F 55.2 °F 30.27 in ENE 2.0 mph 2.0 mph 64% 0.00 in 0.0 W/m2
01:21 67.8 °F 55.6 °F 30.27 in Calm   1.0 mph 65% 0.00 in 0.0 W/m2
01:26 67.6 °F 55.9 °F 30.27 in Calm   1.0 mph 66% 0.00 in 0.0 W/m2
01:30 67.5 °F 55.8 °F 30.27 in Calm     66% 0.00 in 0.0 W/m2
01:40 67.3 °F 55.9 °F 30.27 in Calm   1.0 mph 67% 0.00 in 0.0 W/m2
01:50 66.9 °F 55.9 °F 30.26 in East 2.9 mph 3.0 mph 68% 0.00 in 0.0 W/m2
01:56 66.7 °F 55.8 °F 30.26 in Calm   2.0 mph 68% 0.00 in 0.0 W/m2
02:11 66.6 °F 56.1 °F 30.25 in East 0.9 mph 2.0 mph 69% 0.00 in 0.0 W/m2
02:16 66.4 °F 55.9 °F 30.25 in Calm   1.0 mph 69% 0.00 in 0.0 W/m2
02:21 66.4 °F 56.3 °F 30.25 in Calm   1.0 mph 70% 0.00 in 0.0 W/m2
02:26 66.2 °F 56.1 °F 30.25 in Calm   2.0 mph 70% 0.00 in 0.0 W/m2
02:32 66.0 °F 55.9 °F 30.25 in Calm   3.0 mph 70% 0.00 in 0.0 W/m2
02:37 65.8 °F 56.1 °F 30.25 in Calm   1.0 mph 71% 0.00 in 0.0 W/m2
02:42 65.8 °F 56.1 °F 30.25 in Calm   3.0 mph 71% 0.00 in 0.0 W/m2
02:52 65.7 °F 56.3 °F 30.24 in Calm   3.0 mph 72% 0.00 in 0.0 W/m2
02:57 65.7 °F 56.3 °F 30.24 in Calm   1.0 mph 72% 0.00 in 0.0 W/m2
03:07 65.5 °F 56.7 °F 30.24 in Calm     73% 0.00 in 0.0 W/m2
03:18 65.1 °F 56.3 °F 30.24 in Calm     73% 0.00 in 0.0 W/m2
03:23 65.1 °F 56.7 °F 30.24 in Calm     74% 0.00 in 0.0 W/m2
03:43 64.6 °F 56.5 °F 30.23 in Calm   1.0 mph 75% 0.00 in 0.0 W/m2
03:53 64.2 °F 56.5 °F 30.22 in Calm   1.0 mph 76% 0.00 in 0.0 W/m2
03:59 64.2 °F 56.5 °F 30.23 in Calm     76% 0.00 in 0.0 W/m2
04:04 64.0 °F 56.3 °F 30.23 in Calm     76% 0.00 in 0.0 W/m2
04:09 64.0 °F 56.3 °F 30.23 in Calm   1.0 mph 76% 0.00 in 0.0 W/m2
04:14 63.9 °F 56.5 °F 30.22 in Calm     77% 0.00 in 0.0 W/m2
04:24 63.7 °F 56.3 °F 30.23 in Calm     77% 0.00 in 0.0 W/m2
04:29 63.3 °F 55.9 °F 30.23 in Calm   1.0 mph 77% 0.00 in 0.0 W/m2
04:39 63.1 °F 56.1 °F 30.22 in Calm   1.0 mph 78% 0.00 in 0.0 W/m2
04:50 63.0 °F 56.3 °F 30.23 in Calm     79% 0.00 in 0.0 W/m2
04:55 63.0 °F 56.3 °F 30.23 in Calm     79% 0.00 in 0.0 W/m2
05:00 62.8 °F 56.1 °F 30.23 in Calm     79% 0.00 in 0.0 W/m2
05:05 62.8 °F 56.1 °F 30.23 in Calm   1.0 mph 79% 0.00 in 0.0 W/m2
05:10 62.8 °F 56.5 °F 30.22 in Calm     80% 0.00 in 0.0 W/m2
05:16 62.4 °F 56.1 °F 30.22 in Calm     80% 0.00 in 0.0 W/m2
05:21 62.4 °F 56.1 °F 30.23 in Calm     80% 0.00 in 0.0 W/m2
05:23 62.4 °F 56.1 °F 30.22 in Calm     80% 0.00 in 0.0 W/m2
05:29 62.2 °F 56.3 °F 30.22 in Calm     81% 0.00 in 0.0 W/m2
05:32 62.2 °F 56.3 °F 30.23 in Calm   1.0 mph 81% 0.00 in 0.0 W/m2
05:37 62.1 °F 56.1 °F 30.23 in Calm     81% 0.00 in 0.0 W/m2
05:42 61.9 °F 55.9 °F 30.23 in Calm   1.0 mph 81% 0.00 in 0.0 W/m2
05:47 61.9 °F 55.9 °F 30.23 in Calm     81% 0.00 in 0.0 W/m2
05:52 61.9 °F 55.9 °F 30.23 in Calm     81% 0.00 in 0.0 W/m2
05:57 61.7 °F 56.1 °F 30.23 in Calm     82% 0.00 in 0.0 W/m2
06:02 61.5 °F 55.9 °F 30.23 in Calm     82% 0.00 in 0.0 W/m2
06:13 61.3 °F 55.8 °F 30.24 in Calm   1.0 mph 82% 0.00 in 9.0 W/m2
06:18 61.3 °F 56.1 °F 30.23 in Calm   1.0 mph 83% 0.00 in 11.0 W/m2
06:23 61.3 °F 56.1 °F 30.24 in Calm     83% 0.00 in 12.0 W/m2
06:38 61.3 °F 56.1 °F 30.25 in Calm     83% 0.00 in 18.0 W/m2
06:43 61.3 °F 56.1 °F 30.25 in Calm   1.0 mph 83% 0.00 in 18.0 W/m2
06:53 61.5 °F 56.3 °F 30.25 in Calm     83% 0.00 in 21.0 W/m2
07:04 62.1 °F 56.5 °F 30.25 in Calm   1.0 mph 82% 0.00 in 25.0 W/m2
07:15 63.0 °F 56.7 °F 30.26 in ESE 0.9 mph 2.0 mph 80% 0.00 in 26.0 W/m2
07:20 63.7 °F 57.0 °F 30.25 in Calm   1.0 mph 79% 0.00 in 26.0 W/m2
07:25 64.0 °F 56.7 °F 30.26 in Calm   1.0 mph 77% 0.00 in 28.0 W/m2
07:30 64.6 °F 56.8 °F 30.26 in NNE 2.0 mph 3.0 mph 76% 0.00 in 93.0 W/m2
07:35 65.1 °F 56.7 °F 30.26 in NE 2.0 mph 3.0 mph 74% 0.00 in 171.0 W/m2
07:40 66.0 °F 56.7 °F 30.26 in East 2.0 mph 4.0 mph 72% 0.00 in 334.0 W/m2
08:01 69.4 °F 57.6 °F 30.26 in East 2.0 mph 2.0 mph 66% 0.00 in 425.0 W/m2
08:06 70.2 °F 57.4 °F 30.25 in North 0.9 mph 4.0 mph 64% 0.00 in 446.0 W/m2
08:11 71.1 °F 57.4 °F 30.25 in SE 2.0 mph 4.0 mph 62% 0.00 in 455.0 W/m2
08:16 71.8 °F 57.6 °F 30.25 in NNE 2.0 mph 4.0 mph 61% 0.00 in 483.0 W/m2
08:21 72.3 °F 57.7 °F 30.25 in East 6.0 mph 6.0 mph 60% 0.00 in 504.0 W/m2
08:26 72.9 °F 57.2 °F 30.25 in North 4.9 mph 6.0 mph 58% 0.00 in 520.0 W/m2
08:31 73.0 °F 57.4 °F 30.25 in NE 2.0 mph 3.0 mph 58% 0.00 in 543.0 W/m2
08:52 74.5 °F 56.7 °F 30.24 in Calm   1.0 mph 54% 0.00 in 617.0 W/m2
09:02 75.0 °F 56.7 °F 30.24 in Calm   6.0 mph 53% 0.00 in 654.0 W/m2
09:08 75.6 °F 56.1 °F 30.24 in ESE 4.0 mph 7.0 mph 51% 0.00 in 677.0 W/m2
09:13 75.7 °F 56.3 °F 30.24 in East 4.9 mph 6.0 mph 51% 0.00 in 693.0 W/m2
09:18 76.1 °F 56.1 °F 30.24 in ENE 2.9 mph 5.0 mph 50% 0.00 in 710.0 W/m2
09:24 76.5 °F 55.4 °F 30.24 in NE 2.0 mph 6.0 mph 48% 0.00 in 719.0 W/m2
09:29 77.0 °F 55.2 °F 30.24 in ENE 2.9 mph 6.0 mph 47% 0.00 in 744.0 W/m2
09:34 77.2 °F 54.9 °F 30.24 in East 0.9 mph 3.0 mph 46% 0.00 in 758.0 W/m2
09:39 77.4 °F 53.1 °F 30.24 in ENE 2.0 mph 8.0 mph 43% 0.00 in 772.0 W/m2
09:44 77.5 °F 55.0 °F 30.24 in NNE 4.0 mph 9.0 mph 46% 0.00 in 791.0 W/m2
09:49 78.1 °F 55.0 °F 30.24 in NE 0.9 mph 5.0 mph 45% 0.00 in 809.0 W/m2
09:54 78.6 °F 54.3 °F 30.24 in South 0.9 mph 4.0 mph 43% 0.00 in 819.0 W/m2
10:04 79.0 °F 52.0 °F 30.23 in SSE 2.9 mph 6.0 mph 39% 0.00 in 849.0 W/m2
10:20 80.2 °F 52.3 °F 30.23 in Calm   7.0 mph 38% 0.00 in 889.0 W/m2
10:25 80.6 °F 52.7 °F 30.23 in ENE 6.9 mph 7.0 mph 38% 0.00 in 905.0 W/m2
10:30 80.8 °F 52.9 °F 30.23 in SE 0.9 mph 5.0 mph 38% 0.00 in 944.0 W/m2
10:35 81.0 °F 52.2 °F 30.23 in ENE 2.0 mph 4.0 mph 37% 0.00 in 995.0 W/m2
10:40 80.8 °F 51.3 °F 30.23 in NNE 2.9 mph 10.0 mph 36% 0.00 in 990.0 W/m2
10:45 81.1 °F 50.9 °F 30.22 in East 6.0 mph 8.0 mph 35% 0.00 in 171.0 W/m2
10:50 81.0 °F 52.2 °F 30.22 in ESE 6.9 mph 9.0 mph 37% 0.00 in 1037.0 W/m2
10:55 81.7 °F 51.4 °F 30.22 in East 2.0 mph 10.0 mph 35% 0.00 in 1018.0 W/m2
11:07 82.2 °F 50.2 °F 30.22 in ENE 6.9 mph 7.0 mph 33% 0.00 in 200.0 W/m2
11:17 82.0 °F 50.2 °F 30.22 in SE 6.0 mph 10.0 mph 33% 0.00 in 1137.0 W/m2
11:22 81.9 °F 49.1 °F 30.22 in SE 8.9 mph 11.0 mph 32% 0.00 in 232.0 W/m2
11:42 82.8 °F 48.2 °F 30.22 in Calm   13.0 mph 30% 0.00 in 1049.0 W/m2
11:48 83.1 °F 47.7 °F 30.21 in ESE 8.9 mph 13.0 mph 29% 0.00 in 1065.0 W/m2
11:53 83.5 °F 47.8 °F 30.21 in ESE 6.0 mph 10.0 mph 29% 0.00 in 1071.0 W/m2
11:58 83.8 °F 47.3 °F 30.21 in SSE 4.0 mph 9.0 mph 28% 0.00 in 1069.0 W/m2
12:19 84.9 °F 45.1 °F 30.20 in East 0.9 mph 13.0 mph 25% 0.00 in 1211.0 W/m2
12:24 85.3 °F 47.5 °F 30.20 in ENE 6.0 mph 10.0 mph 27% 0.00 in 1197.0 W/m2
12:29 85.3 °F 46.6 °F 30.20 in SE 6.9 mph 10.0 mph 26% 0.00 in 211.0 W/m2
12:34 84.6 °F 47.8 °F 30.20 in East 6.9 mph 10.0 mph 28% 0.00 in 195.0 W/m2
12:45 84.9 °F 46.2 °F 30.20 in SE 6.0 mph 12.0 mph 26% 0.00 in 1130.0 W/m2
12:50 84.9 °F 46.2 °F 30.19 in NNE 6.9 mph 10.0 mph 26% 0.00 in 234.0 W/m2
12:56 84.4 °F 47.7 °F 30.19 in East 6.0 mph 13.0 mph 28% 0.00 in 211.0 W/m2
13:01 84.0 °F 46.4 °F 30.19 in SE 4.9 mph 13.0 mph 27% 0.00 in 1165.0 W/m2
13:12 84.4 °F 47.7 °F 30.19 in SE 8.1 mph 9.0 mph 28% 0.00 in 1100.0 W/m2
13:17 85.1 °F 45.3 °F 30.19 in ESE 2.0 mph 6.0 mph 25% 0.00 in 1114.0 W/m2
13:22 85.8 °F 45.9 °F 30.19 in NNE 2.9 mph 13.0 mph 25% 0.00 in 1097.0 W/m2
13:27 86.5 °F 46.6 °F 30.18 in SSE 4.0 mph 10.0 mph 25% 0.00 in 1065.0 W/m2
13:34 86.5 °F 47.7 °F 30.18 in East 8.1 mph 11.0 mph 26% 0.00 in 1129.0 W/m2
13:40 86.7 °F 46.8 °F 30.18 in ESE 2.0 mph 8.0 mph 25% 0.00 in 1171.0 W/m2
13:45 86.7 °F 47.7 °F 30.17 in SE 6.0 mph 9.0 mph 26% 0.00 in 190.0 W/m2
13:50 86.7 °F 45.7 °F 30.18 in NE 4.0 mph 12.0 mph 24% 0.00 in 1146.0 W/m2
13:55 87.1 °F 46.9 °F 30.17 in East 4.0 mph 10.0 mph 25% 0.00 in 1202.0 W/m2
14:01 87.1 °F 46.9 °F 30.17 in NE 6.0 mph 9.0 mph 25% 0.00 in 153.0 W/m2
14:17 86.7 °F 46.8 °F 30.17 in ENE 0.9 mph 9.0 mph 25% 0.00 in 306.0 W/m2
14:22 86.4 °F 47.5 °F 30.17 in ESE 2.9 mph 7.0 mph 26% 0.00 in 267.0 W/m2
14:33 86.4 °F 46.4 °F 30.16 in South 0.9 mph 10.0 mph 25% 0.00 in 933.0 W/m2
14:44 87.1 °F 46.9 °F 30.16 in ENE 8.9 mph 10.0 mph 25% 0.00 in 1171.0 W/m2
14:49 87.3 °F 46.0 °F 30.15 in SSE 2.9 mph 11.0 mph 24% 0.00 in 234.0 W/m2
14:55 87.1 °F 45.9 °F 30.15 in NE 4.9 mph 5.0 mph 24% 0.00 in 1027.0 W/m2
15:00 87.6 °F 47.5 °F 30.15 in ENE 6.9 mph 7.0 mph 25% 0.00 in 1106.0 W/m2
15:05 88.0 °F 46.6 °F 30.15 in NNE 4.9 mph 10.0 mph 24% 0.00 in 287.0 W/m2
15:21 86.0 °F 47.1 °F 30.15 in NE 4.9 mph 7.0 mph 26% 0.00 in 230.0 W/m2
15:26 85.5 °F 46.6 °F 30.15 in ENE 2.0 mph 7.0 mph 26% 0.00 in 260.0 W/m2
15:31 85.3 °F 46.6 °F 30.15 in NNE 4.0 mph 7.0 mph 26% 0.00 in 248.0 W/m2
15:37 85.3 °F 45.5 °F 30.15 in East 4.0 mph 9.0 mph 25% 0.00 in 287.0 W/m2
15:42 85.1 °F 44.2 °F 30.15 in SSE 2.9 mph 9.0 mph 24% 0.00 in 373.0 W/m2
15:47 84.9 °F 45.1 °F 30.14 in SE 2.9 mph 9.0 mph 25% 0.00 in 373.0 W/m2
15:53 85.3 °F 46.6 °F 30.14 in Calm   5.0 mph 26% 0.00 in 186.0 W/m2
15:58 85.3 °F 46.6 °F 30.14 in NE 0.9 mph 7.0 mph 26% 0.00 in 156.0 W/m2
16:03 84.9 °F 46.2 °F 30.14 in SE 2.0 mph 13.0 mph 26% 0.00 in 174.0 W/m2
16:08 84.6 °F 45.9 °F 30.14 in ENE 2.0 mph 8.0 mph 26% 0.00 in 214.0 W/m2
16:13 84.4 °F 44.8 °F 30.14 in NE 0.9 mph 13.0 mph 25% 0.00 in 234.0 W/m2
16:18 84.4 °F 44.8 °F 30.14 in Calm   6.0 mph 25% 0.00 in 243.0 W/m2
16:23 84.4 °F 44.8 °F 30.14 in ENE 0.9 mph 7.0 mph 25% 0.00 in 265.0 W/m2
16:28 84.6 °F 45.0 °F 30.14 in North 0.9 mph 7.0 mph 25% 0.00 in 295.0 W/m2
16:39 85.5 °F 45.7 °F 30.13 in North 0.9 mph 6.0 mph 25% 0.00 in 650.0 W/m2
16:44 85.8 °F 44.8 °F 30.13 in ESE 2.9 mph 3.0 mph 24% 0.00 in 348.0 W/m2
16:50 86.4 °F 44.2 °F 30.13 in SE 2.0 mph 7.0 mph 23% 0.00 in 701.0 W/m2
17:00 88.0 °F 45.5 °F 30.12 in NNE 4.0 mph 11.0 mph 23% 0.00 in 244.0 W/m2
17:06 88.0 °F 45.5 °F 30.12 in NE 6.9 mph 9.0 mph 23% 0.00 in 599.0 W/m2
17:11 88.0 °F 45.5 °F 30.12 in ESE 4.9 mph 10.0 mph 23% 0.00 in 519.0 W/m2
17:17 87.1 °F 45.9 °F 30.12 in East 2.0 mph 10.0 mph 24% 0.00 in 77.0 W/m2
17:27 85.6 °F 44.8 °F 30.12 in Calm   8.0 mph 24% 0.00 in 69.0 W/m2
17:32 84.9 °F 45.1 °F 30.12 in NE 4.0 mph 8.0 mph 25% 0.00 in 84.0 W/m2
17:38 84.6 °F 45.9 °F 30.12 in ESE 4.0 mph 7.0 mph 26% 0.00 in 394.0 W/m2
17:48 85.6 °F 44.8 °F 30.12 in SE 6.9 mph 8.0 mph 24% 0.00 in 353.0 W/m2
17:53 86.2 °F 46.2 °F 30.12 in NE 4.0 mph 8.0 mph 25% 0.00 in 318.0 W/m2
18:03 85.6 °F 45.9 °F 30.12 in SE 2.0 mph 4.0 mph 25% 0.00 in 264.0 W/m2
18:08 85.1 °F 45.3 °F 30.12 in East 12.1 mph 13.0 mph 25% 0.00 in 33.0 W/m2
18:13 83.8 °F 45.3 °F 30.12 in East 2.9 mph 7.0 mph 26% 0.00 in 83.0 W/m2
18:19 82.9 °F 45.5 °F 30.13 in SE 2.0 mph 7.0 mph 27% 0.00 in 33.0 W/m2
18:24 82.8 °F 45.3 °F 30.13 in ESE 2.9 mph 5.0 mph 27% 0.00 in 37.0 W/m2
18:29 82.6 °F 45.1 °F 30.13 in Calm   4.0 mph 27% 0.00 in 123.0 W/m2
18:39 82.6 °F 44.2 °F 30.13 in SE 2.9 mph 4.0 mph 26% 0.00 in 32.0 W/m2
18:44 82.2 °F 43.9 °F 30.13 in SE 2.9 mph 6.0 mph 26% 0.00 in 30.0 W/m2
18:50 82.2 °F 43.9 °F 30.13 in NE 2.0 mph 5.0 mph 26% 0.00 in 26.0 W/m2
18:55 82.2 °F 43.9 °F 30.14 in Calm   3.0 mph 26% 0.00 in 18.0 W/m2
19:00 81.9 °F 43.7 °F 30.14 in Calm   7.0 mph 26% 0.00 in 14.0 W/m2
19:05 81.7 °F 43.5 °F 30.14 in SE 2.0 mph 4.0 mph 26% 0.00 in 11.0 W/m2
19:10 81.3 °F 44.1 °F 30.14 in Calm   4.0 mph 27% 0.00 in 9.0 W/m2
19:15 81.1 °F 44.1 °F 30.14 in Calm   4.0 mph 27% 0.00 in 7.0 W/m2
19:25 80.6 °F 44.4 °F 30.14 in Calm   1.0 mph 28% 0.00 in 0.0 W/m2
19:30 80.2 °F 45.1 °F 30.14 in Calm   3.0 mph 29% 0.00 in 0.0 W/m2
19:35 80.1 °F 45.0 °F 30.14 in Calm   2.0 mph 29% 0.00 in 0.0 W/m2
19:40 79.5 °F 45.3 °F 30.15 in Calm   1.0 mph 30% 0.00 in 0.0 W/m2
19:51 79.0 °F 45.7 °F 30.15 in Calm     31% 0.00 in 0.0 W/m2
20:01 78.3 °F 46.0 °F 30.15 in Calm     32% 0.00 in 0.0 W/m2
20:06 77.7 °F 46.4 °F 30.16 in Calm     33% 0.00 in 0.0 W/m2
20:11 77.4 °F 46.0 °F 30.16 in Calm     33% 0.00 in 0.0 W/m2
20:16 77.0 °F 46.4 °F 30.16 in Calm   1.0 mph 34% 0.00 in 0.0 W/m2
20:26 76.3 °F 46.6 °F 30.16 in Calm     35% 0.00 in 0.0 W/m2
20:31 75.9 °F 47.1 °F 30.16 in Calm     36% 0.00 in 0.0 W/m2
20:36 75.6 °F 46.8 °F 30.17 in East 0.9 mph 1.0 mph 36% 0.00 in 0.0 W/m2
20:42 75.4 °F 47.3 °F 30.17 in Calm   1.0 mph 37% 0.00 in 0.0 W/m2
20:47 74.8 °F 46.8 °F 30.17 in East 0.9 mph 1.0 mph 37% 0.00 in 0.0 W/m2
20:52 74.7 °F 46.6 °F 30.17 in Calm   3.0 mph 37% 0.00 in 0.0 W/m2
20:57 74.3 °F 47.1 °F 30.17 in Calm   2.0 mph 38% 0.00 in 0.0 W/m2
21:02 74.1 °F 47.7 °F 30.17 in Calm   2.0 mph 39% 0.00 in 0.0 W/m2
21:12 73.8 °F 48.0 °F 30.18 in East 2.0 mph 3.0 mph 40% 0.00 in 0.0 W/m2
21:23 73.6 °F 48.4 °F 30.19 in South 10.1 mph 10.1 mph 41% 0.00 in 0.0 W/m2
21:28 73.9 °F 48.7 °F 30.19 in South 6.0 mph 10.0 mph 41% 0.00 in 0.0 W/m2
21:38 74.5 °F 49.3 °F 30.20 in SSE 6.9 mph 14.0 mph 41% 0.00 in 0.0 W/m2
21:43 74.7 °F 49.5 °F 30.20 in SSE 6.0 mph 9.0 mph 41% 0.00 in 0.0 W/m2
21:48 74.7 °F 49.5 °F 30.20 in East 6.9 mph 15.0 mph 41% 0.00 in 0.0 W/m2
21:53 74.7 °F 49.5 °F 30.20 in SSE 4.9 mph 11.0 mph 41% 0.00 in 0.0 W/m2
21:58 74.7 °F 49.5 °F 30.20 in SE 4.9 mph 10.0 mph 41% 0.00 in 0.0 W/m2
22:04 74.7 °F 49.5 °F 30.20 in SE 6.0 mph 12.0 mph 41% 0.00 in 0.0 W/m2
22:09 74.7 °F 49.5 °F 30.20 in Calm   13.0 mph 41% 0.00 in 0.0 W/m2
22:14 74.7 °F 48.0 °F 30.21 in SSE 6.0 mph 18.0 mph 39% 0.00 in 0.0 W/m2
22:19 74.8 °F 48.2 °F 30.21 in SE 6.0 mph 13.0 mph 39% 0.00 in 0.0 W/m2
22:29 74.8 °F 48.2 °F 30.21 in SSE 6.0 mph 6.0 mph 39% 0.00 in 0.0 W/m2
22:34 74.8 °F 47.5 °F 30.21 in ESE 2.9 mph 8.0 mph 38% 0.00 in 0.0 W/m2
22:40 74.8 °F 47.5 °F 30.21 in SE 2.0 mph 8.0 mph 38% 0.00 in 0.0 W/m2
22:50 74.8 °F 47.5 °F 30.21 in SSE 2.9 mph 6.0 mph 38% 0.00 in 0.0 W/m2
23:01 75.0 °F 47.7 °F 30.22 in SSE 2.0 mph 9.0 mph 38% 0.00 in 0.0 W/m2
23:06 74.8 °F 47.5 °F 30.22 in SSE 0.9 mph 5.0 mph 38% 0.00 in 0.0 W/m2
23:11 74.7 °F 46.6 °F 30.22 in SE 2.0 mph 11.0 mph 37% 0.00 in 0.0 W/m2
23:31 74.5 °F 46.6 °F 30.22 in Calm   3.0 mph 37% 0.00 in 0.0 W/m2
23:36 74.3 °F 46.4 °F 30.22 in ESE 2.0 mph 6.0 mph 37% 0.00 in 0.0 W/m2
23:41 74.3 °F 46.4 °F 30.22 in SE 2.0 mph 5.0 mph 37% 0.00 in 0.0 W/m2
23:46 74.1 °F 46.2 °F 30.22 in Calm   2.0 mph 37% 0.00 in 0.0 W/m2
23:52 74.1 °F 46.9 °F 30.22 in SE 2.0 mph 5.0 mph 38% 0.00 in 0.0 W/m2
Olympia, Windhoek, Namibia
Compliments of Weather Underground - 3 mb